Islamorada, FL (33036)

12:11 PM EST on February 08, 2016 (GMT -0500)
APRSWXNET | | Change Station
CLOSE
Current Station
Personal Weather Station
Location: Islamorada, FL
Elevation: 15 ft
Nearby Weather Stations

Elev 15 ft 24.92 °N, 80.64 °W | Updated 18 days ago

Partly Cloudy
Partly Cloudy
65 °F
Feels Like 65 °F
N
7
Wind Variable Wind from West
Gusts mph

Today
High -- | Low -- °F
--% Chance of Precip.
Yesterday
High -- | Low -- °F
Precip. -- in
Pressure 30.13 in
Visibility 9.0 miles
Clouds Clear
Dew Point 47 °F
Humidity 53%
Rainfall in
Snow Depth Not available.
7:01 AM 6:12 PM
New Moon, 0% visible
METAR KHST 081658Z AUTO 28009KT 9SM CLR 18/05 A3012 RMK AO2 SLP203 T01750054
Pressure 30.13 in
Visibility 9.0 miles
Clouds Clear
Dew Point 47 °F
Humidity 53%
Rainfall in
Snow Depth Not available.
7:01 AM 6:12 PM
New Moon, 0% visible
METAR KHST 081658Z AUTO 28009KT 9SM CLR 18/05 A3012 RMK AO2 SLP203 T01750054

10-Day Weather Forecast

Almanac

Astronomy

Feb. 08, 2016 Rise Set
Actual Time
Civil Twilight
Nautical Twilight
Astronomical Twilight
Moon
Length of Visible Light
Length of Day
Tomorrow will be .
, % of the Moon is Illuminated

Today's Extremes

State Highs State Lows

Community

WunderPhotos

Upload Photos

1,891,471 photos uploaded!

WunderBlog® & News

Nearby

Air Quality

  Air Quality AQ Index Pollutant
Not available.

Snow Depth

Station Depth Elevation

Earthquake Activity

City Distance Mag. Time & Date
Minimum magnitude displayed is 2.5.

Coastal Water Temperatures

Place Temperature

Stations

Nearby Weather Stations

Station Location Temp. Windchill Dew Point Humidity Wind Precip. Elev Updated Type
                   

Watches & Warnings

There are currently no watches in effect.